Kahloke — CZ3845 — position and weather

sailwx.info

Track history (hours):
 
Tides and Currents Weather Stations Pressure Air Temp Water Temp Dewpoint Dewpoint Depression Visibility Wind Speed Wind Dir Waves Ship Positions

Kahloke

Last reported at 2017-Apr-24 12:19 UTC. Time now 2017-Apr-24 13:17 UTC.
Position N 49°32' W 124°51'.

Length 54 m; draft 2 m.

Type: Passenger vessel. MMSI: 316001236.

Date/timePositionNaut miles runAvg speedWind from/ knotsBaromVisibWave heightAir tempDewpointWater temp
2017-Apr-24 12:19N 49°32' W 124°51'0 0.0
2017-Apr-24 11:55N 49°32' W 124°51'6 0.6
2017-Apr-24 01:54N 49°31' W 124°42'1 2.5
2017-Apr-24 01:29N 49°30' W 124°43'1 1.3
2017-Apr-24 00:53N 49°30' W 124°42'1 2.1
2017-Apr-24 00:30N 49°30' W 124°43'1 2.0
2017-Apr-24 00:00N 49°31' W 124°42'1 2.1
2017-Apr-23 23:30N 49°30' W 124°43'1 1.0
2017-Apr-23 22:58N 49°30' W 124°42'1 1.1
2017-Apr-23 22:28N 49°30' W 124°43'1 2.0
2017-Apr-23 21:59N 49°31' W 124°42'1 1.5
2017-Apr-23 21:30N 49°30' W 124°43'1 1.5
2017-Apr-23 20:59N 49°31' W 124°42'1 2.1
2017-Apr-23 20:30N 49°30' W 124°43'0 0.0
2017-Apr-23 20:00N 49°30' W 124°43'0 0.0
2017-Apr-23 19:30N 49°30' W 124°43'1 1.6
2017-Apr-23 18:52N 49°31' W 124°42'638.2
2017-Apr-23 18:43N 49°32' W 124°51'626.6
2017-Apr-23 18:30N 49°30' W 124°43'1 2.0
2017-Apr-23 18:00N 49°31' W 124°42'1 2.1
2017-Apr-23 17:30N 49°30' W 124°43'1 0.9
2017-Apr-23 16:46N 49°30' W 124°42'1 2.5
2017-Apr-23 16:30N 49°30' W 124°43'1 2.0
2017-Apr-23 16:00N 49°31' W 124°42'0 0.4
2017-Apr-23 15:30N 49°30' W 124°42'0 0.1
2017-Apr-23 15:00N 49°31' W 124°42'0 0.0
2017-Apr-23 11:47N 49°31' W 124°42'0 0.0
2017-Apr-23 11:20N 49°31' W 124°42'0 0.0
2017-Apr-23 10:41N 49°31' W 124°42'0 0.0
2017-Apr-23 09:26N 49°31' W 124°42'0 0.0
2017-Apr-23 08:41N 49°31' W 124°42'0 0.0
2017-Apr-23 08:29N 49°31' W 124°42'6 3.4
2017-Apr-23 06:49N 49°32' W 124°51'0 0.0
2017-Apr-23 05:19N 49°32' W 124°51'0 0.0
2017-Apr-23 04:43N 49°32' W 124°51'0 0.0
2017-Apr-23 04:13N 49°32' W 124°51'6 2.4
2017-Apr-23 01:53N 49°31' W 124°42'1 2.6
2017-Apr-23 01:30N 49°30' W 124°43'1 0.9
2017-Apr-23 00:51N 49°30' W 124°42'1 1.7
2017-Apr-23 00:30N 49°30' W 124°43'617.3
2017-Apr-23 00:10N 49°32' W 124°51'623.3
2017-Apr-22 23:56N 49°31' W 124°42'1 2.1
2017-Apr-22 23:30N 49°30' W 124°43'0 0.7
2017-Apr-22 23:00N 49°30' W 124°42'0 0.8
2017-Apr-22 22:30N 49°30' W 124°43'1 1.2
2017-Apr-22 21:38N 49°31' W 124°42'1 6.6
2017-Apr-22 21:30N 49°30' W 124°42'1 1.3
2017-Apr-22 21:00N 49°30' W 124°42'1 1.7
2017-Apr-22 20:30N 49°30' W 124°43'0 0.0
2017-Apr-22 19:59N 49°30' W 124°43'0 0.0
2017-Apr-22 19:30N 49°30' W 124°43'631.8
2017-Apr-22 19:19N 49°32' W 124°51'612.5
2017-Apr-22 18:52N 49°31' W 124°42'1 2.4
2017-Apr-22 18:26N 49°30' W 124°43'1 2.4
2017-Apr-22 18:00N 49°31' W 124°42'1 2.0
2017-Apr-22 17:30N 49°30' W 124°43'1 1.8
2017-Apr-22 16:56N 49°31' W 124°42'1 2.3
2017-Apr-22 16:30N 49°30' W 124°43'1 1.7
2017-Apr-22 15:56N 49°31' W 124°42'0 0.4
2017-Apr-22 15:30N 49°31' W 124°42'0 0.0
2017-Apr-22 08:36N 49°31' W 124°42'0 0.0
2017-Apr-22 08:24N 49°31' W 124°42'624.8
2017-Apr-22 08:10N 49°32' W 124°51'0 0.0
2017-Apr-22 07:52N 49°32' W 124°51'0 0.0
2017-Apr-22 07:25N 49°32' W 124°51'6 2.6
2017-Apr-22 05:16N 49°31' W 124°42'1 2.9
2017-Apr-22 04:56N 49°30' W 124°43'1 1.5
2017-Apr-22 04:15N 49°31' W 124°42'0 1.1
2017-Apr-22 03:57N 49°30' W 124°42'1 1.5
2017-Apr-22 03:29N 49°30' W 124°43'0 0.1
2017-Apr-22 03:01N 49°30' W 124°43'1 1.9
2017-Apr-22 02:29N 49°31' W 124°42'0 0.0
2017-Apr-22 02:01N 49°31' W 124°42'1 2.0
2017-Apr-22 01:30N 49°30' W 124°43'1 1.3
2017-Apr-22 00:53N 49°30' W 124°42'1 2.1
2017-Apr-22 00:30N 49°30' W 124°43'1 1.6
2017-Apr-21 23:55N 49°31' W 124°42'1 2.2
2017-Apr-21 23:30N 49°30' W 124°43'0 0.7
2017-Apr-21 22:59N 49°30' W 124°42'0 0.8
2017-Apr-21 22:30N 49°30' W 124°43'1 2.0
2017-Apr-21 21:59N 49°31' W 124°42'0 0.0
2017-Apr-21 21:29N 49°31' W 124°42'1 2.0
2017-Apr-21 20:59N 49°30' W 124°43'0 0.0
2017-Apr-21 20:26N 49°30' W 124°43'0 0.0
2017-Apr-21 19:48N 49°30' W 124°43'0 0.0
2017-Apr-21 19:27N 49°30' W 124°43'1 2.1
2017-Apr-21 18:58N 49°31' W 124°42'1 2.2
2017-Apr-21 18:30N 49°30' W 124°43'1 1.7
2017-Apr-21 17:54N 49°31' W 124°42'1 2.5
2017-Apr-21 17:30N 49°30' W 124°43'1 1.8
2017-Apr-21 16:55N 49°31' W 124°42'1 1.8
2017-Apr-21 16:22N 49°30' W 124°43'1 1.5
2017-Apr-21 15:41N 49°31' W 124°42'1 3.7
2017-Apr-21 15:29N 49°30' W 124°42'1 1.3
2017-Apr-21 14:59N 49°31' W 124°42'0 0.0
2017-Apr-21 08:34N 49°31' W 124°42'6 1.0
2017-Apr-21 03:01N 49°32' W 124°51'0 0.0
2017-Apr-21 02:13N 49°32' W 124°51'620.1
2017-Apr-21 01:56N 49°31' W 124°42'648.4
2017-Apr-21 01:49N 49°32' W 124°51'618.2
2017-Apr-21 01:30N 49°30' W 124°43'611.9
2017-Apr-21 01:01N 49°32' W 124°51'650.4
2017-Apr-21 00:54N 49°30' W 124°42'630.6
2017-Apr-21 00:43N 49°32' W 124°51'626.0
2017-Apr-21 00:30N 49°30' W 124°43'1 1.6
2017-Apr-20 23:54N 49°31' W 124°42'1 2.4
2017-Apr-20 23:30N 49°30' W 124°43'1 1.2
2017-Apr-20 23:00N 49°30' W 124°42'1 1.3
2017-Apr-20 22:30N 49°30' W 124°43'0 0.8
2017-Apr-20 21:59N 49°30' W 124°42'0 0.8
2017-Apr-20 21:28N 49°30' W 124°43'1 1.8
2017-Apr-20 20:59N 49°31' W 124°42'1 1.7
2017-Apr-20 20:29N 49°30' W 124°43'0 0.0
2017-Apr-20 20:00N 49°30' W 124°43'0 0.0
2017-Apr-20 19:29N 49°30' W 124°43'1 1.9
2017-Apr-20 18:57N 49°31' W 124°42'1 2.3
2017-Apr-20 18:30N 49°30' W 124°43'1 2.0
2017-Apr-20 17:59N 49°31' W 124°42'1 2.1
2017-Apr-20 17:30N 49°30' W 124°43'1 1.5
2017-Apr-20 16:51N 49°31' W 124°42'1 2.7
2017-Apr-20 16:30N 49°30' W 124°43'1 1.6
2017-Apr-20 15:51N 49°31' W 124°42'1 2.9
2017-Apr-20 15:30N 49°30' W 124°43'0 0.7
2017-Apr-20 15:00N 49°30' W 124°42'1 0.0
2017-Apr-20 01:56N 49°31' W 124°42'1 2.4
2017-Apr-20 01:30N 49°30' W 124°43'1 1.8
2017-Apr-20 00:56N 49°31' W 124°42'1 2.3
2017-Apr-20 00:29N 49°30' W 124°43'615.7
2017-Apr-20 00:07N 49°32' W 124°51'648.4
2017-Apr-20 00:00N 49°31' W 124°42'624.5
2017-Apr-19 23:46N 49°32' W 124°51'621.4
2017-Apr-19 23:30N 49°30' W 124°43'0 0.8
2017-Apr-19 23:00N 49°30' W 124°42'0 0.8
2017-Apr-19 22:30N 49°30' W 124°43'643.3
2017-Apr-19 22:22N 49°32' W 124°51'6 8.4
2017-Apr-19 21:42N 49°31' W 124°42'1 5.3
2017-Apr-19 21:30N 49°30' W 124°43'0 0.4
2017-Apr-19 20:57N 49°30' W 124°42'0 0.5
2017-Apr-19 20:30N 49°30' W 124°43'0 0.0
2017-Apr-19 19:58N 49°30' W 124°43'0 0.0
2017-Apr-19 19:30N 49°30' W 124°43'1 1.8
2017-Apr-19 18:57N 49°31' W 124°42'1 2.2
2017-Apr-19 18:29N 49°30' W 124°43'1 1.5
2017-Apr-19 17:52N 49°31' W 124°42'1 2.5
2017-Apr-19 17:30N 49°30' W 124°43'1 1.6
2017-Apr-19 17:00N 49°30' W 124°42'1 1.6
2017-Apr-19 16:30N 49°30' W 124°43'1 1.5
2017-Apr-19 15:50N 49°31' W 124°42'1 3.2
2017-Apr-19 15:30N 49°30' W 124°43'0 1.0
2017-Apr-19 15:01N 49°30' W 124°42'1 0.9
2017-Apr-19 14:18N 49°31' W 124°42'0 0.0
2017-Apr-19 13:21N 49°31' W 124°42'0 0.0
2017-Apr-19 12:47N 49°31' W 124°42'0 0.0
2017-Apr-19 11:49N 49°31' W 124°42'0 0.0
2017-Apr-19 11:29N 49°31' W 124°42'0 0.0
2017-Apr-19 10:49N 49°31' W 124°42'0 0.0
2017-Apr-19 09:46N 49°31' W 124°42'0 0.0
2017-Apr-19 09:27N 49°31' W 124°42'0 0.0
2017-Apr-19 09:00N 49°31' W 124°42'0 0.0
2017-Apr-19 08:23N 49°31' W 124°42'0 0.0
2017-Apr-19 08:00N 49°31' W 124°42'0 0.0
2017-Apr-19 07:30N 49°31' W 124°42'0 0.0
2017-Apr-19 07:00N 49°31' W 124°42'0 0.0
2017-Apr-19 06:23N 49°31' W 124°42'0 0.0
2017-Apr-19 05:59N 49°31' W 124°42'0 0.0
2017-Apr-19 05:28N 49°31' W 124°42'0 0.0
2017-Apr-19 04:30N 49°31' W 124°42'0 0.0
2017-Apr-19 03:59N 49°31' W 124°42'0 0.0
2017-Apr-19 03:25N 49°31' W 124°42'6130.4
2017-Apr-19 03:22N 49°32' W 124°51'613.9
2017-Apr-19 02:58N 49°31' W 124°42'0 0.0
2017-Apr-19 02:30N 49°31' W 124°42'0 0.4
2017-Apr-19 02:00N 49°30' W 124°42'1 1.6
2017-Apr-19 01:30N 49°30' W 124°43'1 1.7
2017-Apr-19 00:55N 49°31' W 124°42'1 2.4
2017-Apr-19 00:30N 49°30' W 124°43'1 2.0
2017-Apr-18 23:59N 49°31' W 124°42'1 2.1
2017-Apr-18 23:30N 49°30' W 124°43'0 0.4
2017-Apr-18 23:00N 49°30' W 124°43'0 0.4
2017-Apr-18 22:30N 49°30' W 124°43'1 2.0
2017-Apr-18 21:59N 49°31' W 124°42'1 2.1
2017-Apr-18 21:30N 49°30' W 124°43'1 1.4
2017-Apr-18 21:00N 49°30' W 124°42'1 1.5
2017-Apr-18 20:30N 49°30' W 124°43'0 0.0
2017-Apr-18 19:59N 49°30' W 124°43'0 0.0
2017-Apr-18 19:30N 49°30' W 124°43'1 1.9
2017-Apr-18 18:58N 49°31' W 124°42'1 2.2
2017-Apr-18 18:30N 49°30' W 124°43'1 1.9
2017-Apr-18 17:58N 49°31' W 124°42'1 2.2
2017-Apr-18 17:30N 49°30' W 124°43'1 2.0
2017-Apr-18 17:00N 49°31' W 124°42'1 2.1
2017-Apr-18 16:30N 49°30' W 124°43'1 1.3
2017-Apr-18 15:43N 49°31' W 124°42'1 4.1
2017-Apr-18 15:30N 49°30' W 124°43'1 1.4
2017-Apr-18 15:00N 49°30' W 124°42'0 0.1
2017-Apr-18 11:34N 49°31' W 124°42'0 0.0
2017-Apr-18 10:40N 49°31' W 124°42'0 0.0
2017-Apr-18 10:28N 49°31' W 124°42'0 0.0
2017-Apr-18 09:58N 49°31' W 124°42'0 0.0
2017-Apr-18 09:22N 49°31' W 124°42'0 0.0
2017-Apr-18 08:40N 49°31' W 124°42'0 0.0
2017-Apr-18 08:28N 49°31' W 124°42'0 0.0
2017-Apr-18 07:58N 49°31' W 124°42'0 0.0
2017-Apr-18 06:34N 49°31' W 124°42'0 0.0
2017-Apr-18 06:22N 49°31' W 124°42'0 0.0
2017-Apr-18 05:58N 49°31' W 124°42'0 0.0
2017-Apr-18 01:58N 49°31' W 124°42'1 2.2
2017-Apr-18 01:30N 49°30' W 124°43'1 1.7
2017-Apr-18 00:56N 49°31' W 124°42'1 2.4
2017-Apr-18 00:30N 49°30' W 124°43'1 1.7
2017-Apr-17 23:55N 49°31' W 124°42'1 2.4
2017-Apr-17 23:30N 49°30' W 124°43'0 0.6
2017-Apr-17 23:00N 49°30' W 124°42'0 0.5
2017-Apr-17 22:30N 49°30' W 124°43'1 1.9
2017-Apr-17 21:57N 49°31' W 124°42'1 1.7
2017-Apr-17 21:28N 49°30' W 124°42'1 1.0
2017-Apr-17 20:57N 49°30' W 124°42'0 0.5
2017-Apr-17 20:30N 49°31' W 124°42'0 0.2
2017-Apr-17 19:59N 49°31' W 124°42'1 2.1
2017-Apr-17 19:30N 49°30' W 124°43'1 2.0
2017-Apr-17 18:59N 49°31' W 124°42'1 2.1
2017-Apr-17 18:30N 49°30' W 124°43'0 0.4
2017-Apr-17 18:00N 49°30' W 124°43'1 1.3
2017-Apr-17 17:29N 49°31' W 124°42'0 0.2
2017-Apr-17 17:00N 49°31' W 124°42'1 2.1
2017-Apr-17 16:30N 49°30' W 124°43'1 1.9
2017-Apr-17 15:59N 49°31' W 124°42'1 1.9
2017-Apr-17 15:30N 49°30' W 124°43'1 1.7
2017-Apr-17 15:00N 49°31' W 124°42'0 0.1
2017-Apr-17 14:29N 49°31' W 124°42'0 0.0
2017-Apr-17 12:09N 49°31' W 124°42'0 0.0
2017-Apr-17 11:52N 49°31' W 124°42'0 0.0
2017-Apr-17 11:30N 49°31' W 124°42'0 0.0
2017-Apr-17 10:59N 49°31' W 124°42'0 0.0
2017-Apr-17 10:30N 49°31' W 124°42'0 0.0
2017-Apr-17 09:55N 49°31' W 124°42'0 0.0
2017-Apr-17 09:30N 49°31' W 124°42'0 0.0
2017-Apr-17 09:00N 49°31' W 124°42'0 0.0
2017-Apr-17 08:30N 49°31' W 124°42'0 0.0
2017-Apr-17 08:00N 49°31' W 124°42'0 0.0
2017-Apr-17 06:23N 49°31' W 124°42'0 0.0
2017-Apr-17 05:59N 49°31' W 124°42'0 0.0
2017-Apr-17 05:30N 49°31' W 124°42'0 0.0
2017-Apr-17 01:54N 49°31' W 124°42'1 2.6
2017-Apr-17 01:30N 49°30' W 124°43'1 1.8
2017-Apr-17 00:56N 49°31' W 124°42'1 2.3
2017-Apr-17 00:30N 49°30' W 124°43'1 1.8
2017-Apr-16 23:57N 49°31' W 124°42'1 2.3
2017-Apr-16 23:30N 49°30' W 124°43'1 1.2
2017-Apr-16 23:00N 49°30' W 124°42'1 1.2
2017-Apr-16 22:30N 49°30' W 124°43'1 1.5
2017-Apr-16 21:50N 49°31' W 124°42'1 2.2
2017-Apr-16 21:30N 49°30' W 124°42'0 0.5
2017-Apr-16 21:00N 49°30' W 124°43'0 0.0
2017-Apr-16 20:30N 49°30' W 124°43'0 0.0
2017-Apr-16 20:00N 49°30' W 124°43'0 0.0
2017-Apr-16 19:30N 49°30' W 124°43'1 1.5
2017-Apr-16 18:50N 49°31' W 124°42'1 3.0
2017-Apr-16 18:30N 49°30' W 124°43'1 1.6
2017-Apr-16 17:52N 49°31' W 124°42'1 2.7
2017-Apr-16 17:30N 49°30' W 124°43'1 1.8
2017-Apr-16 16:56N 49°31' W 124°42'1 2.4
2017-Apr-16 16:30N 49°30' W 124°43'1 0.1
2017-Apr-16 08:51N 49°31' W 124°42'0 0.0
2017-Apr-16 06:39N 49°31' W 124°42'6220.2
2017-Apr-16 06:37N 49°32' W 124°51'0 0.0
2017-Apr-16 06:25N 49°32' W 124°51'677.0
2017-Apr-16 06:21N 49°31' W 124°42'615.1
2017-Apr-16 05:58N 49°32' W 124°51'6235.4
2017-Apr-16 05:57N 49°31' W 124°42'612.0
2017-Apr-16 05:28N 49°32' W 124°51'0 0.0
2017-Apr-16 04:55N 49°32' W 124°51'0 0.0
2017-Apr-16 04:28N 49°32' W 124°51'0 0.0
2017-Apr-16 03:58N 49°32' W 124°51'6 3.7
2017-Apr-16 02:27N 49°31' W 124°42'0 0.0
2017-Apr-16 01:57N 49°31' W 124°42'625.0
2017-Apr-16 01:43N 49°32' W 124°51'626.8
2017-Apr-16 01:30N 49°30' W 124°43'1 1.8
2017-Apr-16 00:57N 49°31' W 124°42'1 2.3
2017-Apr-16 00:30N 49°30' W 124°43'1 1.8
2017-Apr-15 23:57N 49°31' W 124°42'1 2.3
2017-Apr-15 23:30N 49°30' W 124°43'1 1.1
2017-Apr-15 23:00N 49°30' W 124°42'1 1.1
2017-Apr-15 22:30N 49°30' W 124°43'1 1.3
2017-Apr-15 21:44N 49°31' W 124°42'1 4.4
2017-Apr-15 21:30N 49°30' W 124°43'0 0.4
2017-Apr-15 20:59N 49°30' W 124°42'0 0.5
2017-Apr-15 20:30N 49°30' W 124°43'0 0.0
2017-Apr-15 20:00N 49°30' W 124°43'0 0.0
2017-Apr-15 19:30N 49°30' W 124°43'1 2.0
2017-Apr-15 18:59N 49°31' W 124°42'1 2.1
2017-Apr-15 18:30N 49°30' W 124°43'1 1.4
2017-Apr-15 17:51N 49°31' W 124°42'1 2.7
2017-Apr-15 17:30N 49°30' W 124°43'1 2.1
2017-Apr-15 17:00N 49°31' W 124°42'1 2.0
2017-Apr-15 16:30N 49°30' W 124°43'1 1.8
2017-Apr-15 15:55N 49°31' W 124°42'0 0.0
2017-Apr-15 15:29N 49°31' W 124°42'0 0.0
2017-Apr-15 14:59N 49°31' W 124°42'0 0.0
2017-Apr-15 13:49N 49°31' W 124°42'0 0.0
2017-Apr-15 13:25N 49°31' W 124°42'0 0.0
2017-Apr-15 12:52N 49°31' W 124°42'0 0.0
2017-Apr-15 11:31N 49°31' W 124°42'0 0.0
2017-Apr-15 11:19N 49°31' W 124°42'0 0.0
2017-Apr-15 10:55N 49°31' W 124°42'0 0.0
2017-Apr-15 10:13N 49°31' W 124°42'0 0.0
2017-Apr-15 09:49N 49°31' W 124°42'0 0.0
2017-Apr-15 05:19N 49°31' W 124°42'1 3.4
2017-Apr-15 05:00N 49°30' W 124°43'620.1
2017-Apr-15 04:43N 49°32' W 124°51'624.4
2017-Apr-15 04:29N 49°31' W 124°42'0 0.0
2017-Apr-15 04:00N 49°31' W 124°42'1 2.1
2017-Apr-15 03:30N 49°30' W 124°43'630.8
2017-Apr-15 03:19N 49°32' W 124°51'617.5
2017-Apr-15 03:00N 49°30' W 124°43'1 1.8
2017-Apr-15 02:30N 49°31' W 124°42'0 0.0
2017-Apr-15 01:58N 49°31' W 124°42'1 2.2
2017-Apr-15 01:30N 49°30' W 124°43'0 0.0
2017-Apr-15 01:00N 49°30' W 124°43'0 0.8
2017-Apr-15 00:30N 49°30' W 124°43'1 1.2
2017-Apr-14 23:59N 49°31' W 124°42'1 2.2
2017-Apr-14 23:30N 49°30' W 124°43'0 0.0
2017-Apr-14 23:00N 49°30' W 124°43'0 0.0
2017-Apr-14 22:30N 49°30' W 124°43'0 0.0
2017-Apr-14 22:00N 49°30' W 124°43'0 0.7
2017-Apr-14 21:30N 49°30' W 124°42'1 1.0
2017-Apr-14 20:50N 49°31' W 124°42'1 3.1
2017-Apr-14 20:30N 49°30' W 124°43'0 0.0
2017-Apr-14 20:00N 49°30' W 124°43'1 1.4
2017-Apr-14 19:30N 49°30' W 124°42'1 1.2
2017-Apr-14 19:00N 49°30' W 124°43'0 0.2
2017-Apr-14 18:30N 49°30' W 124°43'1 2.0
2017-Apr-14 18:00N 49°31' W 124°42'1 2.1
2017-Apr-14 17:30N 49°30' W 124°43'1 2.0
2017-Apr-14 16:59N 49°31' W 124°42'1 2.1
2017-Apr-14 16:30N 49°30' W 124°43'1 1.3
2017-Apr-14 15:45N 49°31' W 124°42'0 0.1
2017-Apr-14 15:30N 49°31' W 124°42'0 0.0
2017-Apr-14 15:00N 49°31' W 124°42'0 0.0
2017-Apr-14 14:27N 49°31' W 124°42'0 0.0
2017-Apr-14 13:30N 49°31' W 124°42'0 0.0
2017-Apr-14 12:50N 49°31' W 124°42'  
Track history (hours):
 
Tides and Currents Weather Stations Pressure Air Temp Water Temp Dewpoint Dewpoint Depression Visibility Wind Speed Wind Dir Waves Ship Positions

Kahloke

Last reported at 2017-Apr-24 12:19 UTC. Time now 2017-Apr-24 13:17 UTC.
Position N 49°32' W 124°51'.

Length 54 m; draft 2 m.

Type: Passenger vessel. MMSI: 316001236.

Date/timePositionNaut miles runAvg speedWind from/ knotsBaromVisibWave heightAir tempDewpointWater temp
2017-Apr-24 12:19N 49°32' W 124°51'0 0.0
2017-Apr-24 11:55N 49°32' W 124°51'6 0.6
2017-Apr-24 01:54N 49°31' W 124°42'1 2.5
2017-Apr-24 01:29N 49°30' W 124°43'1 1.3
2017-Apr-24 00:53N 49°30' W 124°42'1 2.1
2017-Apr-24 00:30N 49°30' W 124°43'1 2.0
2017-Apr-24 00:00N 49°31' W 124°42'1 2.1
2017-Apr-23 23:30N 49°30' W 124°43'1 1.0
2017-Apr-23 22:58N 49°30' W 124°42'1 1.1
2017-Apr-23 22:28N 49°30' W 124°43'1 2.0
2017-Apr-23 21:59N 49°31' W 124°42'1 1.5
2017-Apr-23 21:30N 49°30' W 124°43'1 1.5
2017-Apr-23 20:59N 49°31' W 124°42'1 2.1
2017-Apr-23 20:30N 49°30' W 124°43'0 0.0
2017-Apr-23 20:00N 49°30' W 124°43'0 0.0
2017-Apr-23 19:30N 49°30' W 124°43'1 1.6
2017-Apr-23 18:52N 49°31' W 124°42'638.2
2017-Apr-23 18:43N 49°32' W 124°51'626.6
2017-Apr-23 18:30N 49°30' W 124°43'1 2.0
2017-Apr-23 18:00N 49°31' W 124°42'1 2.1
2017-Apr-23 17:30N 49°30' W 124°43'1 0.9
2017-Apr-23 16:46N 49°30' W 124°42'1 2.5
2017-Apr-23 16:30N 49°30' W 124°43'1 2.0
2017-Apr-23 16:00N 49°31' W 124°42'0 0.4
2017-Apr-23 15:30N 49°30' W 124°42'0 0.1
2017-Apr-23 15:00N 49°31' W 124°42'0 0.0
2017-Apr-23 11:47N 49°31' W 124°42'0 0.0
2017-Apr-23 11:20N 49°31' W 124°42'0 0.0
2017-Apr-23 10:41N 49°31' W 124°42'0 0.0
2017-Apr-23 09:26N 49°31' W 124°42'0 0.0
2017-Apr-23 08:41N 49°31' W 124°42'0 0.0
2017-Apr-23 08:29N 49°31' W 124°42'6 3.4
2017-Apr-23 06:49N 49°32' W 124°51'0 0.0
2017-Apr-23 05:19N 49°32' W 124°51'0 0.0
2017-Apr-23 04:43N 49°32' W 124°51'0 0.0
2017-Apr-23 04:13N 49°32' W 124°51'6 2.4
2017-Apr-23 01:53N 49°31' W 124°42'1 2.6
2017-Apr-23 01:30N 49°30' W 124°43'1 0.9
2017-Apr-23 00:51N 49°30' W 124°42'1 1.7
2017-Apr-23 00:30N 49°30' W 124°43'617.3
2017-Apr-23 00:10N 49°32' W 124°51'623.3
2017-Apr-22 23:56N 49°31' W 124°42'1 2.1
2017-Apr-22 23:30N 49°30' W 124°43'0 0.7
2017-Apr-22 23:00N 49°30' W 124°42'0 0.8
2017-Apr-22 22:30N 49°30' W 124°43'1 1.2
2017-Apr-22 21:38N 49°31' W 124°42'1 6.6
2017-Apr-22 21:30N 49°30' W 124°42'1 1.3
2017-Apr-22 21:00N 49°30' W 124°42'1 1.7
2017-Apr-22 20:30N 49°30' W 124°43'0 0.0
2017-Apr-22 19:59N 49°30' W 124°43'0 0.0
2017-Apr-22 19:30N 49°30' W 124°43'631.8
2017-Apr-22 19:19N 49°32' W 124°51'612.5
2017-Apr-22 18:52N 49°31' W 124°42'1 2.4
2017-Apr-22 18:26N 49°30' W 124°43'1 2.4
2017-Apr-22 18:00N 49°31' W 124°42'1 2.0
2017-Apr-22 17:30N 49°30' W 124°43'1 1.8
2017-Apr-22 16:56N 49°31' W 124°42'1 2.3
2017-Apr-22 16:30N 49°30' W 124°43'1 1.7
2017-Apr-22 15:56N 49°31' W 124°42'0 0.4
2017-Apr-22 15:30N 49°31' W 124°42'0 0.0
2017-Apr-22 08:36N 49°31' W 124°42'0 0.0
2017-Apr-22 08:24N 49°31' W 124°42'624.8
2017-Apr-22 08:10N 49°32' W 124°51'0 0.0
2017-Apr-22 07:52N 49°32' W 124°51'0 0.0
2017-Apr-22 07:25N 49°32' W 124°51'6 2.6
2017-Apr-22 05:16N 49°31' W 124°42'1 2.9
2017-Apr-22 04:56N 49°30' W 124°43'1 1.5
2017-Apr-22 04:15N 49°31' W 124°42'0 1.1
2017-Apr-22 03:57N 49°30' W 124°42'1 1.5
2017-Apr-22 03:29N 49°30' W 124°43'0 0.1
2017-Apr-22 03:01N 49°30' W 124°43'1 1.9
2017-Apr-22 02:29N 49°31' W 124°42'0 0.0
2017-Apr-22 02:01N 49°31' W 124°42'1 2.0
2017-Apr-22 01:30N 49°30' W 124°43'1 1.3
2017-Apr-22 00:53N 49°30' W 124°42'1 2.1
2017-Apr-22 00:30N 49°30' W 124°43'1 1.6
2017-Apr-21 23:55N 49°31' W 124°42'1 2.2
2017-Apr-21 23:30N 49°30' W 124°43'0 0.7
2017-Apr-21 22:59N 49°30' W 124°42'0 0.8
2017-Apr-21 22:30N 49°30' W 124°43'1 2.0
2017-Apr-21 21:59N 49°31' W 124°42'0 0.0
2017-Apr-21 21:29N 49°31' W 124°42'1 2.0
2017-Apr-21 20:59N 49°30' W 124°43'0 0.0
2017-Apr-21 20:26N 49°30' W 124°43'0 0.0
2017-Apr-21 19:48N 49°30' W 124°43'0 0.0
2017-Apr-21 19:27N 49°30' W 124°43'1 2.1
2017-Apr-21 18:58N 49°31' W 124°42'1 2.2
2017-Apr-21 18:30N 49°30' W 124°43'1 1.7
2017-Apr-21 17:54N 49°31' W 124°42'1 2.5
2017-Apr-21 17:30N 49°30' W 124°43'1 1.8
2017-Apr-21 16:55N 49°31' W 124°42'1 1.8
2017-Apr-21 16:22N 49°30' W 124°43'1 1.5
2017-Apr-21 15:41N 49°31' W 124°42'1 3.7
2017-Apr-21 15:29N 49°30' W 124°42'1 1.3
2017-Apr-21 14:59N 49°31' W 124°42'0 0.0
2017-Apr-21 08:34N 49°31' W 124°42'6 1.0
2017-Apr-21 03:01N 49°32' W 124°51'0 0.0
2017-Apr-21 02:13N 49°32' W 124°51'620.1
2017-Apr-21 01:56N 49°31' W 124°42'648.4
2017-Apr-21 01:49N 49°32' W 124°51'618.2
2017-Apr-21 01:30N 49°30' W 124°43'611.9
2017-Apr-21 01:01N 49°32' W 124°51'650.4
2017-Apr-21 00:54N 49°30' W 124°42'630.6
2017-Apr-21 00:43N 49°32' W 124°51'626.0
2017-Apr-21 00:30N 49°30' W 124°43'1 1.6
2017-Apr-20 23:54N 49°31' W 124°42'1 2.4
2017-Apr-20 23:30N 49°30' W 124°43'1 1.2
2017-Apr-20 23:00N 49°30' W 124°42'1 1.3
2017-Apr-20 22:30N 49°30' W 124°43'0 0.8
2017-Apr-20 21:59N 49°30' W 124°42'0 0.8
2017-Apr-20 21:28N 49°30' W 124°43'1 1.8
2017-Apr-20 20:59N 49°31' W 124°42'1 1.7
2017-Apr-20 20:29N 49°30' W 124°43'0 0.0
2017-Apr-20 20:00N 49°30' W 124°43'0 0.0
2017-Apr-20 19:29N 49°30' W 124°43'1 1.9
2017-Apr-20 18:57N 49°31' W 124°42'1 2.3
2017-Apr-20 18:30N 49°30' W 124°43'1 2.0
2017-Apr-20 17:59N 49°31' W 124°42'1 2.1
2017-Apr-20 17:30N 49°30' W 124°43'1 1.5
2017-Apr-20 16:51N 49°31' W 124°42'1 2.7
2017-Apr-20 16:30N 49°30' W 124°43'1 1.6
2017-Apr-20 15:51N 49°31' W 124°42'1 2.9
2017-Apr-20 15:30N 49°30' W 124°43'0 0.7
2017-Apr-20 15:00N 49°30' W 124°42'1 0.0
2017-Apr-20 01:56N 49°31' W 124°42'1 2.4
2017-Apr-20 01:30N 49°30' W 124°43'1 1.8
2017-Apr-20 00:56N 49°31' W 124°42'1 2.3
2017-Apr-20 00:29N 49°30' W 124°43'615.7
2017-Apr-20 00:07N 49°32' W 124°51'648.4
2017-Apr-20 00:00N 49°31' W 124°42'624.5
2017-Apr-19 23:46N 49°32' W 124°51'621.4
2017-Apr-19 23:30N 49°30' W 124°43'0 0.8
2017-Apr-19 23:00N 49°30' W 124°42'0 0.8
2017-Apr-19 22:30N 49°30' W 124°43'643.3
2017-Apr-19 22:22N 49°32' W 124°51'6 8.4
2017-Apr-19 21:42N 49°31' W 124°42'1 5.3
2017-Apr-19 21:30N 49°30' W 124°43'0 0.4
2017-Apr-19 20:57N 49°30' W 124°42'0 0.5
2017-Apr-19 20:30N 49°30' W 124°43'0 0.0
2017-Apr-19 19:58N 49°30' W 124°43'0 0.0
2017-Apr-19 19:30N 49°30' W 124°43'1 1.8
2017-Apr-19 18:57N 49°31' W 124°42'1 2.2
2017-Apr-19 18:29N 49°30' W 124°43'1 1.5
2017-Apr-19 17:52N 49°31' W 124°42'1 2.5
2017-Apr-19 17:30N 49°30' W 124°43'1 1.6
2017-Apr-19 17:00N 49°30' W 124°42'1 1.6
2017-Apr-19 16:30N 49°30' W 124°43'1 1.5
2017-Apr-19 15:50N 49°31' W 124°42'1 3.2
2017-Apr-19 15:30N 49°30' W 124°43'0 1.0
2017-Apr-19 15:01N 49°30' W 124°42'1 0.9
2017-Apr-19 14:18N 49°31' W 124°42'0 0.0
2017-Apr-19 13:21N 49°31' W 124°42'0 0.0
2017-Apr-19 12:47N 49°31' W 124°42'0 0.0
2017-Apr-19 11:49N 49°31' W 124°42'0 0.0
2017-Apr-19 11:29N 49°31' W 124°42'0 0.0
2017-Apr-19 10:49N 49°31' W 124°42'0 0.0
2017-Apr-19 09:46N 49°31' W 124°42'0 0.0
2017-Apr-19 09:27N 49°31' W 124°42'0 0.0
2017-Apr-19 09:00N 49°31' W 124°42'0 0.0
2017-Apr-19 08:23N 49°31' W 124°42'0 0.0
2017-Apr-19 08:00N 49°31' W 124°42'0 0.0
2017-Apr-19 07:30N 49°31' W 124°42'0 0.0
2017-Apr-19 07:00N 49°31' W 124°42'0 0.0
2017-Apr-19 06:23N 49°31' W 124°42'0 0.0
2017-Apr-19 05:59N 49°31' W 124°42'0 0.0
2017-Apr-19 05:28N 49°31' W 124°42'0 0.0
2017-Apr-19 04:30N 49°31' W 124°42'0 0.0
2017-Apr-19 03:59N 49°31' W 124°42'0 0.0
2017-Apr-19 03:25N 49°31' W 124°42'6130.4
2017-Apr-19 03:22N 49°32' W 124°51'613.9
2017-Apr-19 02:58N 49°31' W 124°42'0 0.0
2017-Apr-19 02:30N 49°31' W 124°42'0 0.4
2017-Apr-19 02:00N 49°30' W 124°42'1 1.6
2017-Apr-19 01:30N 49°30' W 124°43'1 1.7
2017-Apr-19 00:55N 49°31' W 124°42'1 2.4
2017-Apr-19 00:30N 49°30' W 124°43'1 2.0
2017-Apr-18 23:59N 49°31' W 124°42'1 2.1
2017-Apr-18 23:30N 49°30' W 124°43'0 0.4
2017-Apr-18 23:00N 49°30' W 124°43'0 0.4
2017-Apr-18 22:30N 49°30' W 124°43'1 2.0
2017-Apr-18 21:59N 49°31' W 124°42'1 2.1
2017-Apr-18 21:30N 49°30' W 124°43'1 1.4
2017-Apr-18 21:00N 49°30' W 124°42'1 1.5
2017-Apr-18 20:30N 49°30' W 124°43'0 0.0
2017-Apr-18 19:59N 49°30' W 124°43'0 0.0
2017-Apr-18 19:30N 49°30' W 124°43'1 1.9
2017-Apr-18 18:58N 49°31' W 124°42'1 2.2
2017-Apr-18 18:30N 49°30' W 124°43'1 1.9
2017-Apr-18 17:58N 49°31' W 124°42'1 2.2
2017-Apr-18 17:30N 49°30' W 124°43'1 2.0
2017-Apr-18 17:00N 49°31' W 124°42'1 2.1
2017-Apr-18 16:30N 49°30' W 124°43'1 1.3
2017-Apr-18 15:43N 49°31' W 124°42'1 4.1
2017-Apr-18 15:30N 49°30' W 124°43'1 1.4
2017-Apr-18 15:00N 49°30' W 124°42'0 0.1
2017-Apr-18 11:34N 49°31' W 124°42'0 0.0
2017-Apr-18 10:40N 49°31' W 124°42'0 0.0
2017-Apr-18 10:28N 49°31' W 124°42'0 0.0
2017-Apr-18 09:58N 49°31' W 124°42'0 0.0
2017-Apr-18 09:22N 49°31' W 124°42'0 0.0
2017-Apr-18 08:40N 49°31' W 124°42'0 0.0
2017-Apr-18 08:28N 49°31' W 124°42'0 0.0
2017-Apr-18 07:58N 49°31' W 124°42'0 0.0
2017-Apr-18 06:34N 49°31' W 124°42'0 0.0
2017-Apr-18 06:22N 49°31' W 124°42'0 0.0
2017-Apr-18 05:58N 49°31' W 124°42'0 0.0
2017-Apr-18 01:58N 49°31' W 124°42'1 2.2
2017-Apr-18 01:30N 49°30' W 124°43'1 1.7
2017-Apr-18 00:56N 49°31' W 124°42'1 2.4
2017-Apr-18 00:30N 49°30' W 124°43'1 1.7
2017-Apr-17 23:55N 49°31' W 124°42'1 2.4
2017-Apr-17 23:30N 49°30' W 124°43'0 0.6
2017-Apr-17 23:00N 49°30' W 124°42'0 0.5
2017-Apr-17 22:30N 49°30' W 124°43'1 1.9
2017-Apr-17 21:57N 49°31' W 124°42'1 1.7
2017-Apr-17 21:28N 49°30' W 124°42'1 1.0
2017-Apr-17 20:57N 49°30' W 124°42'0 0.5
2017-Apr-17 20:30N 49°31' W 124°42'0 0.2
2017-Apr-17 19:59N 49°31' W 124°42'1 2.1
2017-Apr-17 19:30N 49°30' W 124°43'1 2.0
2017-Apr-17 18:59N 49°31' W 124°42'1 2.1
2017-Apr-17 18:30N 49°30' W 124°43'0 0.4
2017-Apr-17 18:00N 49°30' W 124°43'1 1.3
2017-Apr-17 17:29N 49°31' W 124°42'0 0.2
2017-Apr-17 17:00N 49°31' W 124°42'1 2.1
2017-Apr-17 16:30N 49°30' W 124°43'1 1.9
2017-Apr-17 15:59N 49°31' W 124°42'1 1.9
2017-Apr-17 15:30N 49°30' W 124°43'1 1.7
2017-Apr-17 15:00N 49°31' W 124°42'0 0.1
2017-Apr-17 14:29N 49°31' W 124°42'0 0.0
2017-Apr-17 12:09N 49°31' W 124°42'0 0.0
2017-Apr-17 11:52N 49°31' W 124°42'0 0.0
2017-Apr-17 11:30N 49°31' W 124°42'0 0.0
2017-Apr-17 10:59N 49°31' W 124°42'0 0.0
2017-Apr-17 10:30N 49°31' W 124°42'0 0.0
2017-Apr-17 09:55N 49°31' W 124°42'0 0.0
2017-Apr-17 09:30N 49°31' W 124°42'0 0.0
2017-Apr-17 09:00N 49°31' W 124°42'0 0.0
2017-Apr-17 08:30N 49°31' W 124°42'0 0.0
2017-Apr-17 08:00N 49°31' W 124°42'0 0.0
2017-Apr-17 06:23N 49°31' W 124°42'0 0.0
2017-Apr-17 05:59N 49°31' W 124°42'0 0.0
2017-Apr-17 05:30N 49°31' W 124°42'0 0.0
2017-Apr-17 01:54N 49°31' W 124°42'1 2.6
2017-Apr-17 01:30N 49°30' W 124°43'1 1.8
2017-Apr-17 00:56N 49°31' W 124°42'1 2.3
2017-Apr-17 00:30N 49°30' W 124°43'1 1.8
2017-Apr-16 23:57N 49°31' W 124°42'1 2.3
2017-Apr-16 23:30N 49°30' W 124°43'1 1.2
2017-Apr-16 23:00N 49°30' W 124°42'1 1.2
2017-Apr-16 22:30N 49°30' W 124°43'1 1.5
2017-Apr-16 21:50N 49°31' W 124°42'1 2.2
2017-Apr-16 21:30N 49°30' W 124°42'0 0.5
2017-Apr-16 21:00N 49°30' W 124°43'0 0.0
2017-Apr-16 20:30N 49°30' W 124°43'0 0.0
2017-Apr-16 20:00N 49°30' W 124°43'0 0.0
2017-Apr-16 19:30N 49°30' W 124°43'1 1.5
2017-Apr-16 18:50N 49°31' W 124°42'1 3.0
2017-Apr-16 18:30N 49°30' W 124°43'1 1.6
2017-Apr-16 17:52N 49°31' W 124°42'1 2.7
2017-Apr-16 17:30N 49°30' W 124°43'1 1.8
2017-Apr-16 16:56N 49°31' W 124°42'1 2.4
2017-Apr-16 16:30N 49°30' W 124°43'1 0.1
2017-Apr-16 08:51N 49°31' W 124°42'0 0.0
2017-Apr-16 06:39N 49°31' W 124°42'6220.2
2017-Apr-16 06:37N 49°32' W 124°51'0 0.0
2017-Apr-16 06:25N 49°32' W 124°51'677.0
2017-Apr-16 06:21N 49°31' W 124°42'615.1
2017-Apr-16 05:58N 49°32' W 124°51'6235.4
2017-Apr-16 05:57N 49°31' W 124°42'612.0
2017-Apr-16 05:28N 49°32' W 124°51'0 0.0
2017-Apr-16 04:55N 49°32' W 124°51'0 0.0
2017-Apr-16 04:28N 49°32' W 124°51'0 0.0
2017-Apr-16 03:58N 49°32' W 124°51'6 3.7
2017-Apr-16 02:27N 49°31' W 124°42'0 0.0
2017-Apr-16 01:57N 49°31' W 124°42'625.0
2017-Apr-16 01:43N 49°32' W 124°51'626.8
2017-Apr-16 01:30N 49°30' W 124°43'1 1.8
2017-Apr-16 00:57N 49°31' W 124°42'1 2.3
2017-Apr-16 00:30N 49°30' W 124°43'1 1.8
2017-Apr-15 23:57N 49°31' W 124°42'1 2.3
2017-Apr-15 23:30N 49°30' W 124°43'1 1.1
2017-Apr-15 23:00N 49°30' W 124°42'1 1.1
2017-Apr-15 22:30N 49°30' W 124°43'1 1.3
2017-Apr-15 21:44N 49°31' W 124°42'1 4.4
2017-Apr-15 21:30N 49°30' W 124°43'0 0.4
2017-Apr-15 20:59N 49°30' W 124°42'0 0.5
2017-Apr-15 20:30N 49°30' W 124°43'0 0.0
2017-Apr-15 20:00N 49°30' W 124°43'0 0.0
2017-Apr-15 19:30N 49°30' W 124°43'1 2.0
2017-Apr-15 18:59N 49°31' W 124°42'1 2.1
2017-Apr-15 18:30N 49°30' W 124°43'1 1.4
2017-Apr-15 17:51N 49°31' W 124°42'1 2.7
2017-Apr-15 17:30N 49°30' W 124°43'1 2.1
2017-Apr-15 17:00N 49°31' W 124°42'1 2.0
2017-Apr-15 16:30N 49°30' W 124°43'1 1.8
2017-Apr-15 15:55N 49°31' W 124°42'0 0.0
2017-Apr-15 15:29N 49°31' W 124°42'0 0.0
2017-Apr-15 14:59N 49°31' W 124°42'0 0.0
2017-Apr-15 13:49N 49°31' W 124°42'0 0.0
2017-Apr-15 13:25N 49°31' W 124°42'0 0.0
2017-Apr-15 12:52N 49°31' W 124°42'0 0.0
2017-Apr-15 11:31N 49°31' W 124°42'0 0.0
2017-Apr-15 11:19N 49°31' W 124°42'0 0.0
2017-Apr-15 10:55N 49°31' W 124°42'0 0.0
2017-Apr-15 10:13N 49°31' W 124°42'0 0.0
2017-Apr-15 09:49N 49°31' W 124°42'0 0.0
2017-Apr-15 05:19N 49°31' W 124°42'1 3.4
2017-Apr-15 05:00N 49°30' W 124°43'620.1
2017-Apr-15 04:43N 49°32' W 124°51'624.4
2017-Apr-15 04:29N 49°31' W 124°42'0 0.0
2017-Apr-15 04:00N 49°31' W 124°42'1 2.1
2017-Apr-15 03:30N 49°30' W 124°43'630.8
2017-Apr-15 03:19N 49°32' W 124°51'617.5
2017-Apr-15 03:00N 49°30' W 124°43'1 1.8
2017-Apr-15 02:30N 49°31' W 124°42'0 0.0
2017-Apr-15 01:58N 49°31' W 124°42'1 2.2
2017-Apr-15 01:30N 49°30' W 124°43'0 0.0
2017-Apr-15 01:00N 49°30' W 124°43'0 0.8
2017-Apr-15 00:30N 49°30' W 124°43'1 1.2
2017-Apr-14 23:59N 49°31' W 124°42'1 2.2
2017-Apr-14 23:30N 49°30' W 124°43'0 0.0
2017-Apr-14 23:00N 49°30' W 124°43'0 0.0
2017-Apr-14 22:30N 49°30' W 124°43'0 0.0
2017-Apr-14 22:00N 49°30' W 124°43'0 0.7
2017-Apr-14 21:30N 49°30' W 124°42'1 1.0
2017-Apr-14 20:50N 49°31' W 124°42'1 3.1
2017-Apr-14 20:30N 49°30' W 124°43'0 0.0
2017-Apr-14 20:00N 49°30' W 124°43'1 1.4
2017-Apr-14 19:30N 49°30' W 124°42'1 1.2
2017-Apr-14 19:00N 49°30' W 124°43'0 0.2
2017-Apr-14 18:30N 49°30' W 124°43'1 2.0
2017-Apr-14 18:00N 49°31' W 124°42'1 2.1
2017-Apr-14 17:30N 49°30' W 124°43'1 2.0
2017-Apr-14 16:59N 49°31' W 124°42'1 2.1
2017-Apr-14 16:30N 49°30' W 124°43'1 1.3
2017-Apr-14 15:45N 49°31' W 124°42'0 0.1
2017-Apr-14 15:30N 49°31' W 124°42'0 0.0
2017-Apr-14 15:00N 49°31' W 124°42'0 0.0
2017-Apr-14 14:27N 49°31' W 124°42'0 0.0
2017-Apr-14 13:30N 49°31' W 124°42'0 0.0
2017-Apr-14 12:50N 49°31' W 124°42'  

Dump ship's entire track history